Terminal Aerodrome Forecast
Issued by NWS

Home | Current Version | Previous Version | Graphics & Text | Print | Product List | Glossary On
Versions: 1 2 3 4 5 6 7 8 9 10 11 12 13 14 15 16 17
000
FTUS43 KBIS 201700
TAFJMS
TAF
KJMS 201735Z 2018/2118 18015KT P6SM FEW250
     FM210100 26011KT P6SM VCSH SCT070 BKN090
     FM210500 29009KT P6SM SKC=

USA.gov is the U.S. government's official web portal to all federal, state and local government web resources and services.